Terminal Aerodrome Forecast
Issued by NWS Portland, ME

Current Version | Previous Version | Text Only | Print | Product List | Glossary On
Versions: 1 2 3 4 5 6 7 8 9 10 11 12 13 14 15 16 17
000 FTUS41 KGYX 230134 AAA TAFCON TAF AMD KCON 230134Z 2302/2324 32008KT P6SM SCT100 TEMPO 2302/2304 BKN100 FM230400 29008KT P6SM FEW120 FM231300 31014G24KT P6SM SKC FM231600 30018G28KT P6SM SCT060=

USA.gov is the U.S. government's official web portal to all federal, state and local government web resources and services.